Time;durP1;ratioP1;P1;durP2;ratioP2;P2;SDS_P1;SDS_P2;PMS_P1;PMS_P2;Temp;Humidity;BMP_temperature;BMP_pressure;BME280_temperature;BME280_humidity;BME280_pressure;Samples;Min_cycle;Max_cycle;Signal;HPM_P1;HPM_P2
2022/05/13 00:17:35;;;;;;;2.65;0.93;;;13.70;75.50;;;;;;6034657;23;20008;-89
2022/05/13 00:21:04;;;;;;;;;;;;;;;;;;;;;
2022/05/13 00:30:53;;;;;;;;;;;;;;;;;;;;;
2022/05/13 00:41:11;;;;;;;4.28;0.95;;;13.50;76.20;;;;;;6235577;22;20453;-89
2022/05/13 00:44:18;;;;;;;;;;;;;;;;;;;;;
2022/05/13 00:47:43;;;;;;;2.30;0.82;;;13.50;76.30;;;;;;6287478;22;20030;-88
2022/05/13 00:53:59;;;;;;;2.28;1.05;;;13.40;76.50;;;;;;6261443;22;20068;-90
2022/05/13 00:57:14;;;;;;;;;;;;;;;;;;;;;
2022/05/13 01:00:04;;;;;;;;;;;;;;;;;;;;;
2022/05/13 01:09:51;;;;;;;;;;;;;;;;;;;;;
2022/05/13 01:13:14;;;;;;;;;;;;;;;;;;;;;
2022/05/13 01:19:58;;;;;;;;;;;;;;;;;;;;;
2022/05/13 01:23:27;;;;;;;;;;;;;;;;;;;;;
2022/05/13 01:36:38;;;;;;;;;;;;;;;;;;;;;
2022/05/13 01:39:34;;;;;;;;;;;;;;;;;;;;;
2022/05/13 01:43:02;;;;;;;;;;;;;;;;;;;;;
2022/05/13 01:46:32;;;;;;;3.35;1.00;;;13.20;78.50;;;;;;6293487;22;20058;-89
2022/05/13 01:52:49;;;;;;;4.53;1.30;;;13.10;78.90;;;;;;6185801;22;20059;-89
2022/05/13 01:56:17;;;;;;;;;;;;;;;;;;;;;
2022/05/13 01:59:35;;;;;;;3.22;1.23;;;13.00;79.10;;;;;;6179320;22;20001;-88
2022/05/13 02:26:02;;;;;;;;;;;13.10;79.60;;;;;;5899387;24;20020;-89
2022/05/13 02:32:46;;;;;;;;;;;;;;;;;;;;;
2022/05/13 02:41:11;;;;;;;4.43;1.88;;;13.10;80.00;;;;;;6279448;22;20015;-91
2022/05/13 02:43:08;;;;;;;7.07;1.83;;;13.10;80.00;;;;;;6276834;22;20015;-91
2022/05/13 02:45:37;;;;;;;3.75;1.17;;;13.10;80.20;;;;;;6276636;22;20008;-90
2022/05/13 02:48:06;;;;;;;4.97;1.67;;;13.20;80.40;;;;;;6276605;22;20008;-94
2022/05/13 02:50:31;;;;;;;6.75;1.70;;;13.10;80.40;;;;;;6277047;22;20004;-93
2022/05/13 02:52:58;;;;;;;5.95;1.70;;;13.20;80.60;;;;;;6277306;22;20058;-93
2022/05/13 02:55:24;;;;;;;3.92;1.75;;;13.20;81.30;;;;;;6277022;22;20007;-93
2022/05/13 02:57:50;;;;;;;6.82;1.75;;;13.20;80.80;;;;;;6277521;22;20149;-91
2022/05/13 03:00:16;;;;;;;3.85;1.45;;;13.20;80.90;;;;;;6279521;22;20012;-93
2022/05/13 03:02:44;;;;;;;5.50;1.63;;;13.20;81.60;;;;;;6300860;22;20022;-90
2022/05/13 03:05:12;;;;;;;6.53;1.98;;;13.20;81.10;;;;;;6302992;22;20003;-89
2022/05/13 03:07:41;;;;;;;14.25;2.63;;;13.20;81.20;;;;;;6303044;22;19995;-92
2022/05/13 03:10:11;;;;;;;7.22;2.10;;;13.20;81.40;;;;;;6298650;22;20012;-90
2022/05/13 03:12:48;;;;;;;;;;;;;;;;;;;;;
2022/05/13 03:15:17;;;;;;;3.90;1.60;;;13.30;81.50;;;;;;6282112;22;20459;-92
2022/05/13 03:17:46;;;;;;;6.47;2.25;;;13.30;81.60;;;;;;6276821;22;20000;-92
2022/05/13 03:20:20;;;;;;;5.10;2.17;;;13.30;81.60;;;;;;6277303;22;20040;-92
2022/05/13 03:22:51;;;;;;;6.43;2.08;;;13.40;81.80;;;;;;6276449;22;20034;-92
2022/05/13 03:25:18;;;;;;;4.28;1.92;;;13.30;81.80;;;;;;6277252;22;20484;-92
2022/05/13 03:27:47;;;;;;;6.53;2.30;;;13.30;81.80;;;;;;6251255;22;20015;-92
2022/05/13 03:30:32;;;;;;;;;;;;;;;;;;;;;
2022/05/13 03:33:08;;;;;;;7.35;2.28;;;13.30;82.20;;;;;;6278305;22;20074;-91
2022/05/13 03:35:34;;;;;;;6.53;2.42;;;13.40;82.20;;;;;;6252812;22;20027;-92
2022/05/13 03:38:00;;;;;;;7.35;2.33;;;13.40;82.20;;;;;;6276583;22;20319;-92
2022/05/13 03:40:41;;;;;;;;;;;;;;;;;;;;;
2022/05/13 03:43:13;;;;;;;;;;;13.40;82.50;;;;;;6277141;22;20512;-92
2022/05/13 03:45:46;;;;;;;4.93;2.38;;;13.40;82.50;;;;;;6276731;22;19899;-91
2022/05/13 03:48:13;;;;;;;5.00;2.25;;;13.40;82.50;;;;;;6276992;22;20000;-94
2022/05/13 03:50:50;;;;;;;6.72;2.65;;;13.40;82.60;;;;;;6251125;22;20012;-94
2022/05/13 03:53:21;;;;;;;9.60;2.78;;;13.40;82.80;;;;;;6277153;22;19999;-92
2022/05/13 03:55:50;;;;;;;7.47;3.22;;;13.30;82.90;;;;;;6276682;22;20003;-91
2022/05/13 03:58:16;;;;;;;6.57;2.90;;;13.30;82.90;;;;;;6276498;22;20000;-92
2022/05/13 04:00:43;;;;;;;7.45;2.60;;;13.40;83.10;;;;;;6276891;22;20011;-93
2022/05/13 04:03:11;;;;;;;7.78;3.00;;;13.40;83.20;;;;;;6276073;22;20086;-91
2022/05/13 04:11:14;;;;;;;11.50;3.30;;;13.30;83.40;;;;;;6257272;22;20349;-91
2022/05/13 04:16:27;;;;;;;8.75;3.55;;;13.30;83.70;;;;;;6280735;22;20118;-94
2022/05/13 04:18:58;;;;;;;9.55;3.78;;;13.30;83.90;;;;;;6276801;22;20004;-92
2022/05/13 04:21:32;;;;;;;6.28;3.13;;;13.30;83.90;;;;;;6252775;22;20085;-94
2022/05/13 04:24:04;;;;;;;7.55;3.17;;;13.30;84.00;;;;;;6251076;22;20008;-92
2022/05/13 04:26:30;;;;;;;9.43;4.05;;;13.30;84.10;;;;;;6276327;22;20321;-92
2022/05/13 04:28:56;;;;;;;9.77;4.10;;;13.30;84.80;;;;;;6276226;22;20143;-91
2022/05/13 04:31:33;;;;;;;8.05;3.85;;;13.30;84.30;;;;;;6275848;22;20000;-92
2022/05/13 04:33:59;;;;;;;9.48;3.63;;;13.30;84.50;;;;;;6277067;22;19999;-91
2022/05/13 04:36:30;;;;;;;10.73;3.50;;;13.20;84.40;;;;;;6279085;22;20081;-90
2022/05/13 04:39:00;;;;;;;8.57;4.25;;;13.30;84.60;;;;;;6276737;22;20000;-92
2022/05/13 04:44:14;;;;;;;8.27;3.80;;;13.30;85.00;;;;;;6280558;22;20384;-92
2022/05/13 04:46:40;;;;;;;10.20;3.55;;;13.20;85.00;;;;;;6292660;22;20061;-92
2022/05/13 04:49:18;;;;;;;8.27;3.40;;;13.30;85.20;;;;;;6299131;22;20012;-93
2022/05/13 04:51:46;;;;;;;11.80;3.55;;;13.30;85.30;;;;;;6301027;22;20012;-95
2022/05/13 04:54:14;;;;;;;8.30;3.38;;;13.30;85.40;;;;;;6269760;22;20000;-93
2022/05/13 04:57:02;;;;;;;7.10;3.22;;;13.30;85.50;;;;;;6256571;22;20008;-93
2022/05/13 04:59:31;;;;;;;7.47;3.60;;;13.30;85.60;;;;;;6280093;22;20350;-93
2022/05/13 05:02:17;;;;;;;7.50;3.42;;;13.30;85.60;;;;;;6278882;22;20011;-94
2022/05/13 05:04:46;;;;;;;8.93;3.70;;;13.30;85.80;;;;;;6279239;22;20004;-91
2022/05/13 05:07:25;;;;;;;9.05;3.58;;;13.30;85.80;;;;;;6279622;22;20000;-92
2022/05/13 05:16:49;;;;;;;9.30;3.97;;;13.30;86.20;;;;;;6220851;22;20008;-91
2022/05/13 05:19:39;;;;;;;7.88;3.80;;;13.40;86.10;;;;;;6167921;23;20005;-90
2022/05/13 05:22:25;;;;;;;7.68;3.95;;;13.40;86.30;;;;;;6218342;23;20092;-93
2022/05/13 05:24:56;;;;;;;7.90;3.60;;;13.30;86.30;;;;;;6271424;22;20023;-93
2022/05/13 05:27:36;;;;;;;;;;;13.30;86.70;;;;;;6283908;22;20007;-94
2022/05/13 05:30:13;;;;;;;10.45;3.92;;;13.40;86.70;;;;;;6281849;22;19899;-90
2022/05/13 05:32:47;;;;;;;7.32;4.10;;;13.40;86.60;;;;;;6280810;22;20003;-92
2022/05/13 05:35:17;;;;;;;10.13;4.25;;;13.50;86.70;;;;;;6279393;22;19996;-90
2022/05/13 05:37:46;;;;;;;9.10;4.05;;;13.60;86.80;;;;;;6281325;22;19995;-89
2022/05/13 05:40:15;;;;;;;10.18;4.85;;;13.60;86.80;;;;;;6282192;22;20038;-92
2022/05/13 05:42:48;;;;;;;8.77;4.28;;;13.70;86.80;;;;;;6281173;22;20103;-92
2022/05/13 05:45:28;;;;;;;7.22;3.80;;;13.70;86.80;;;;;;6280313;22;20058;-94
2022/05/13 05:48:09;;;;;;;13.52;3.97;;;13.80;86.90;;;;;;6280346;22;20000;-90
2022/05/13 05:50:36;;;;;;;9.75;4.32;;;13.80;86.90;;;;;;6280157;22;20450;-93
2022/05/13 05:53:05;;;;;;;10.27;3.95;;;13.80;87.00;;;;;;6278905;22;20004;-93
2022/05/13 05:58:34;;;;;;;10.35;4.95;;;13.90;87.40;;;;;;6279755;22;20046;-92
2022/05/13 06:01:00;;;;;;;8.23;4.45;;;13.90;87.60;;;;;;6253952;22;20016;-93
2022/05/13 06:03:28;;;;;;;13.57;4.97;;;13.90;87.70;;;;;;6279514;22;20000;-92
2022/05/13 06:06:05;;;;;;;12.73;4.72;;;14.00;87.80;;;;;;6279140;22;20333;-90
2022/05/13 06:08:46;;;;;;;8.70;4.70;;;14.10;88.00;;;;;;6278872;22;20389;-93
2022/05/13 06:11:17;;;;;;;11.00;4.60;;;14.10;88.10;;;;;;6279124;22;20015;-92
2022/05/13 06:20:55;;;;;;;10.07;4.55;;;14.40;88.10;;;;;;6279476;22;20022;-89
2022/05/13 06:23:22;;;;;;;8.98;4.72;;;14.40;88.10;;;;;;6227641;22;20046;-91
2022/05/13 06:25:55;;;;;;;12.48;5.15;;;14.50;88.10;;;;;;6228705;22;20004;-90
2022/05/13 06:28:28;;;;;;;10.52;4.82;;;14.50;88.20;;;;;;6233404;22;20008;-91
2022/05/13 06:30:56;;;;;;;16.98;5.70;;;14.60;88.30;;;;;;6284591;22;19996;-91
2022/05/13 06:33:41;;;;;;;;;;;;;;;;;;;;;
2022/05/13 06:36:43;;;;;;;;;;;;;;;;;;;;;
2022/05/13 06:42:53;;;;;;;9.80;4.90;;;14.90;88.20;;;;;;6280604;22;20004;-91
2022/05/13 06:45:21;;;;;;;13.25;5.63;;;15.00;88.10;;;;;;6254474;22;20012;-93
2022/05/13 06:48:05;;;;;;;;;;;;;;;;;;;;;
2022/05/13 06:51:10;;;;;;;;;;;;;;;;;;;;;
2022/05/13 06:54:07;;;;;;;10.25;5.07;;;15.20;88.40;;;;;;6253357;22;20429;-93
2022/05/13 06:56:41;;;;;;;8.70;4.43;;;15.20;88.20;;;;;;6252383;22;20000;-94
2022/05/13 06:59:35;;;;;;;13.18;5.15;;;15.20;88.10;;;;;;6252449;22;20000;-92
2022/05/13 07:02:16;;;;;;;;;;;;;;;;;;;;;
2022/05/13 07:05:15;;;;;;;;;;;;;;;;;;;;;
2022/05/13 07:07:50;;;;;;;15.30;5.82;;;15.40;88.20;;;;;;6279810;22;20082;-94
2022/05/13 07:10:35;;;;;;;;;;;;;;;;;;;;;
2022/05/13 07:13:12;;;;;;;10.55;5.22;;;15.50;88.30;;;;;;6231895;22;20063;-94
2022/05/13 07:16:09;;;;;;;11.07;5.38;;;15.50;88.30;;;;;;6252033;22;20007;-95
2022/05/13 07:19:04;;;;;;;11.63;5.60;;;15.60;88.20;;;;;;6239217;22;20003;-93
2022/05/13 07:21:43;;;;;;;;;;;;;;;;;;;;;
2022/05/13 07:27:49;;;;;;;;;;;15.70;88.10;;;;;;6264678;22;20014;-95
2022/05/13 07:30:45;;;;;;;;;;;;;;;;;;;;;
2022/05/13 07:33:46;;;;;;;8.80;5.32;;;15.80;87.90;;;;;;6285188;22;20440;-94
2022/05/13 07:36:29;;;;;;;;;;;;;;;;;;;;;
2022/05/13 07:42:01;;;;;;;;;;;;;;;;;;;;;
2022/05/13 07:44:29;;;;;;;;;;;16.10;87.60;;;;;;6279553;22;20074;-94
2022/05/13 07:47:17;;;;;;;;;;;;;;;;;;;;;
2022/05/13 07:50:06;;;;;;;11.52;5.90;;;16.20;87.50;;;;;;6280535;22;20063;-94
2022/05/13 07:52:45;;;;;;;;;;;;;;;;;;;;;
2022/05/13 07:55:27;;;;;;;11.43;5.70;;;16.30;87.20;;;;;;6278720;22;20136;-94
2022/05/13 07:58:02;;;;;;;10.10;6.00;;;16.30;87.10;;;;;;6251650;22;20007;-94
2022/05/13 08:01:14;;;;;;;11.90;5.97;;;16.40;87.00;;;;;;6251512;22;20015;-92
2022/05/13 08:03:43;;;;;;;17.70;6.38;;;16.30;86.80;;;;;;6244256;22;20091;-94
2022/05/13 08:06:32;;;;;;;12.32;5.28;;;16.30;86.70;;;;;;6233108;22;20003;-94
2022/05/13 08:09:01;;;;;;;8.00;4.95;;;16.40;86.90;;;;;;6226346;22;20007;-93
2022/05/13 08:11:36;;;;;;;10.05;4.63;;;16.40;86.60;;;;;;6253746;22;20008;-92
2022/05/13 08:14:35;;;;;;;13.70;5.05;;;16.50;86.50;;;;;;6231967;22;20010;-94
2022/05/13 08:17:05;;;;;;;9.80;4.50;;;16.60;86.30;;;;;;6261809;22;20023;-94
2022/05/13 08:19:51;;;;;;;10.80;4.50;;;16.60;86.00;;;;;;6235604;22;20020;-93
2022/05/13 08:22:52;;;;;;;;;;;;;;;;;;;;;
2022/05/13 08:25:46;;;;;;;8.73;4.05;;;16.60;85.80;;;;;;6303924;22;20011;-91
2022/05/13 08:28:45;;;;;;;11.70;4.22;;;16.60;85.70;;;;;;6276850;22;20038;-93
2022/05/13 08:31:25;;;;;;;7.53;4.13;;;16.60;85.50;;;;;;6303061;22;20042;-95
2022/05/13 08:34:09;;;;;;;;;;;;;;;;;;;;;
2022/05/13 08:37:00;;;;;;;10.35;4.03;;;16.60;85.40;;;;;;6256808;22;20049;-93
2022/05/13 08:43:15;;;;;;;7.30;3.80;;;16.60;85.20;;;;;;6267772;22;20016;-94
2022/05/13 08:45:55;;;;;;;8.30;3.72;;;16.60;85.10;;;;;;6250413;22;20007;-94
2022/05/13 08:51:54;;;;;;;6.80;3.35;;;16.50;85.10;;;;;;6139096;23;20017;-92
2022/05/13 08:54:53;;;;;;;9.18;2.97;;;16.50;84.90;;;;;;6129371;23;20121;-92
2022/05/13 08:57:34;;;;;;;7.22;2.50;;;16.50;84.90;;;;;;6152344;23;20155;-92
2022/05/13 09:00:27;;;;;;;5.40;2.00;;;16.60;84.80;;;;;;6131488;23;20355;-94
2022/05/13 09:04:05;;;;;;;4.28;1.70;;;16.70;84.50;;;;;;6155966;23;20018;-91
2022/05/13 09:06:59;;;;;;;4.43;1.52;;;16.70;83.60;;;;;;6107460;23;20009;-92
2022/05/13 09:09:37;;;;;;;7.15;1.52;;;16.80;82.90;;;;;;6253499;22;19999;-93
2022/05/13 09:12:17;;;;;;;5.43;1.40;;;16.90;82.00;;;;;;6228464;22;20066;-93
2022/05/13 09:15:14;;;;;;;4.45;1.20;;;17.00;82.00;;;;;;6252930;22;19996;-92
2022/05/13 09:18:13;;;;;;;2.22;0.98;;;17.10;81.50;;;;;;6252024;22;20389;-92
2022/05/13 09:21:05;;;;;;;;;;;;;;;;;;;;;
2022/05/13 09:26:31;;;;;;;3.75;1.05;;;17.40;81.20;;;;;;6242193;22;20007;-90
2022/05/13 09:29:05;;;;;;;4.10;1.45;;;17.50;80.20;;;;;;6252992;22;20063;-90
2022/05/13 09:32:12;;;;;;;;;;;;;;;;;;;;;
2022/05/13 09:35:47;;;;;;;;;;;;;;;;;;;;;
2022/05/13 09:38:25;;;;;;;5.78;1.20;;;17.60;79.10;;;;;;6278745;22;20004;-94
2022/05/13 09:41:52;;;;;;;3.92;1.35;;;17.60;78.80;;;;;;6232236;22;20050;-92
2022/05/13 09:44:47;;;;;;;2.33;1.05;;;17.70;78.50;;;;;;6183835;22;20027;-93
2022/05/13 09:48:03;;;;;;;;;;;;;;;;;;;;;
2022/05/13 09:50:43;;;;;;;;;;;;;;;;;;;;;
2022/05/13 09:54:02;;;;;;;2.78;1.23;;;17.80;77.80;;;;;;6256909;22;20035;-92
2022/05/13 09:57:22;;;;;;;;;;;;;;;;;;;;;
2022/05/13 10:03:39;;;;;;;;;;;;;;;;;;;;;
2022/05/13 10:16:28;;;;;;;5.68;1.27;;;18.20;77.50;;;;;;6300495;22;20068;-92
2022/05/13 10:22:46;;;;;;;3.80;1.50;;;18.20;77.20;;;;;;6277487;22;20062;-95
2022/05/13 10:25:37;;;;;;;;;;;;;;;;;;;;;
2022/05/13 10:31:41;;;;;;;;;;;;;;;;;;;;;
2022/05/13 10:34:53;;;;;;;;;;;;;;;;;;;;;
2022/05/13 10:37:28;;;;;;;5.40;1.67;;;18.30;77.30;;;;;;6278554;22;20079;-94
2022/05/13 10:43:45;;;;;;;;;;;;;;;;;;;;;
2022/05/13 10:46:55;;;;;;;3.08;1.30;;;18.30;76.40;;;;;;6279248;22;20079;-94
2022/05/13 10:50:04;;;;;;;4.67;1.20;;;18.30;75.70;;;;;;6252462;22;20031;-94
2022/05/13 10:52:55;;;;;;;3.15;1.17;;;18.30;75.20;;;;;;6253598;22;20011;-93
2022/05/13 10:55:21;;;;;;;3.95;1.38;;;18.30;74.50;;;;;;6251716;22;20008;-94
2022/05/13 10:58:41;;;;;;;;;;;;;;;;;;;;;
2022/05/13 11:01:54;;;;;;;4.67;1.33;;;18.30;74.30;;;;;;6242750;22;20087;-93
2022/05/13 11:05:05;;;;;;;2.80;0.90;;;18.30;74.10;;;;;;6251978;22;20477;-94
2022/05/13 11:07:58;;;;;;;3.28;1.40;;;18.40;74.30;;;;;;6252174;22;20069;-94
2022/05/13 11:17:01;;;;;;;6.40;1.30;;;18.50;73.60;;;;;;6262561;22;20010;-94
2022/05/13 11:20:11;;;;;;;5.10;1.05;;;18.60;73.10;;;;;;6251706;22;20077;-93
2022/05/13 11:22:47;;;;;;;;;;;;;;;;;;;;;
2022/05/13 11:28:51;;;;;;;;;;;;;;;;;;;;;
2022/05/13 11:32:03;;;;;;;5.85;1.55;;;18.70;72.10;;;;;;6278746;22;20090;-94
2022/05/13 11:35:06;;;;;;;2.67;0.88;;;18.70;71.70;;;;;;6229983;22;20003;-94
2022/05/13 11:37:42;;;;;;;2.92;0.80;;;18.80;71.80;;;;;;6193056;23;20008;-93
2022/05/13 11:41:04;;;;;;;;;;;;;;;;;;;;;
2022/05/13 11:44:36;;;;;;;2.15;0.93;;;18.90;71.40;;;;;;6232730;22;20406;-94
2022/05/13 11:47:57;;;;;;;4.40;1.10;;;18.90;70.90;;;;;;6159564;22;20082;-93
2022/05/13 11:50:51;;;;;;;3.20;0.90;;;19.00;70.90;;;;;;6203574;22;20032;-93
2022/05/13 11:54:12;;;;;;;;;;;;;;;;;;;;;
2022/05/13 11:59:43;;;;;;;;;;;;;;;;;;;;;
2022/05/13 12:02:28;;;;;;;2.78;0.80;;;19.10;69.70;;;;;;6281447;22;20090;-93
2022/05/13 12:06:07;;;;;;;2.60;1.23;;;19.20;69.50;;;;;;6252601;22;20018;-92
2022/05/13 12:08:42;;;;;;;3.72;0.98;;;19.20;69.40;;;;;;6275116;22;20102;-93
2022/05/13 12:12:12;;;;;;;2.65;0.70;;;19.20;69.30;;;;;;6265109;22;19996;-93
2022/05/13 12:15:06;;;;;;;4.13;1.02;;;19.30;69.50;;;;;;6133260;22;20025;-92
2022/05/13 12:21:59;;;;;;;;;;;;;;;;;;;;;
2022/05/13 12:38:36;;;;;;;2.65;1.00;;;19.70;66.80;;;;;;6281751;22;20010;-92
2022/05/13 12:44:27;;;;;;;3.83;1.15;;;19.80;66.70;;;;;;6269239;22;20008;-95
2022/05/13 12:47:20;;;;;;;2.28;1.08;;;19.90;66.70;;;;;;6255863;22;20410;-93
2022/05/13 12:50:17;;;;;;;3.25;1.27;;;19.80;65.80;;;;;;6255849;22;20008;-92
2022/05/13 12:52:59;;;;;;;3.15;1.00;;;19.80;65.70;;;;;;6252083;22;20019;-94
2022/05/13 12:56:06;;;;;;;;;;;;;;;;;;;;;
2022/05/13 12:59:11;;;;;;;2.80;1.10;;;19.90;65.90;;;;;;6281483;22;20084;-94
2022/05/13 13:02:02;;;;;;;2.30;1.05;;;19.90;65.90;;;;;;6254235;22;20016;-94
2022/05/13 13:07:53;;;;;;;;;;;;;;;;;;;;;
2022/05/13 13:10:41;;;;;;;;;;;;;;;;;;;;;
2022/05/13 13:14:00;;;;;;;4.75;1.30;;;20.10;65.70;;;;;;6280417;22;20071;-93
2022/05/13 13:16:54;;;;;;;;;;;;;;;;;;;;;
2022/05/13 13:19:39;;;;;;;;;;;;;;;;;;;;;
2022/05/13 13:22:32;;;;;;;;;;;;;;;;;;;;;
2022/05/13 13:26:00;;;;;;;;;;;;;;;;;;;;;
2022/05/13 13:28:35;;;;;;;2.60;1.42;;;20.10;65.90;;;;;;6279864;22;20087;-93
2022/05/13 13:31:38;;;;;;;3.38;1.20;;;20.20;65.90;;;;;;6279954;22;20007;-93
2022/05/13 13:34:34;;;;;;;2.90;1.02;;;20.30;65.90;;;;;;6229162;22;20008;-95
2022/05/13 13:37:23;;;;;;;;;;;;;;;;;;;;;
2022/05/13 13:40:25;;;;;;;2.72;1.40;;;20.30;65.30;;;;;;6279680;22;20078;-93
2022/05/13 13:43:29;;;;;;;4.30;1.30;;;20.30;65.20;;;;;;6252796;22;20433;-93
2022/05/13 13:46:08;;;;;;;5.80;1.77;;;20.30;64.80;;;;;;6252570;22;20094;-93
2022/05/13 13:48:55;;;;;;;4.00;1.60;;;20.30;65.00;;;;;;6253511;22;20011;-94
2022/05/13 13:51:43;;;;;;;3.55;1.48;;;20.30;64.80;;;;;;6254068;22;20004;-94
2022/05/13 13:54:52;;;;;;;2.95;1.27;;;20.30;64.70;;;;;;6231245;22;20073;-94
2022/05/13 14:01:36;;;;;;;;;;;;;;;;;;;;;
2022/05/13 14:07:08;;;;;;;;;;;;;;;;;;;;;
2022/05/13 14:10:17;;;;;;;4.45;1.50;;;20.50;65.10;;;;;;6282380;22;20039;-95
2022/05/13 14:13:10;;;;;;;4.13;1.40;;;20.40;65.00;;;;;;6277835;22;20011;-95
2022/05/13 14:16:10;;;;;;;1.55;0.90;;;20.40;64.80;;;;;;6277735;22;20042;-92
2022/05/13 14:19:21;;;;;;;;;;;;;;;;;;;;;
2022/05/13 14:22:12;;;;;;;4.00;1.63;;;20.50;65.00;;;;;;6301443;22;20015;-94
2022/05/13 14:25:10;;;;;;;4.25;1.50;;;20.60;65.10;;;;;;6252914;22;20484;-93
2022/05/13 14:31:08;;;;;;;7.10;1.30;;;20.60;65.20;;;;;;6279677;22;20432;-91
2022/05/13 14:34:03;;;;;;;3.15;1.02;;;20.60;65.20;;;;;;6252159;22;20007;-94
2022/05/13 14:40:39;;;;;;;2.85;1.35;;;20.70;64.90;;;;;;6279295;22;20437;-94
2022/05/13 14:43:23;;;;;;;;;;;;;;;;;;;;;
2022/05/13 14:49:31;;;;;;;3.03;1.52;;;20.90;64.10;;;;;;6233158;22;20008;-92
2022/05/13 14:59:26;;;;;;;2.75;1.02;;;21.00;64.20;;;;;;6159524;23;20348;-93
2022/05/13 15:02:16;;;;;;;4.20;1.40;;;21.00;64.10;;;;;;6086746;23;20024;-94
2022/05/13 15:05:09;;;;;;;2.70;1.50;;;21.00;64.00;;;;;;6255770;22;19996;-94
2022/05/13 15:11:06;;;;;;;7.00;1.70;;;20.90;63.60;;;;;;6243685;22;20049;-94
2022/05/13 15:13:40;;;;;;;4.20;1.77;;;21.00;63.80;;;;;;6231094;22;20004;-94
2022/05/13 15:16:30;;;;;;;;;;;;;;;;;;;;;
2022/05/13 15:19:30;;;;;;;5.45;2.08;;;20.90;63.60;;;;;;6278501;22;20130;-93
2022/05/13 15:22:22;;;;;;;5.82;1.95;;;20.80;63.30;;;;;;6252349;22;20008;-93
2022/05/13 15:28:26;;;;;;;;;;;;;;;;;;;;;
2022/05/13 15:30:57;;;;;;;2.63;1.60;;;20.70;64.20;;;;;;6255579;22;20078;-93
2022/05/13 15:33:32;;;;;;;6.30;2.35;;;20.70;64.40;;;;;;6226724;22;20015;-91
2022/05/13 15:36:32;;;;;;;7.07;2.80;;;20.80;64.50;;;;;;6226472;22;20015;-94
2022/05/13 15:39:26;;;;;;;6.47;2.75;;;20.70;64.50;;;;;;6253580;22;20030;-94
2022/05/13 15:41:52;;;;;;;5.82;2.40;;;20.70;64.70;;;;;;6260071;22;20022;-93
2022/05/13 15:44:18;;;;;;;7.32;2.50;;;20.70;64.80;;;;;;6253671;22;20082;-92
2022/05/13 15:46:45;;;;;;;6.43;2.30;;;20.70;64.90;;;;;;6251701;22;20055;-91
2022/05/13 15:54:47;;;;;;;4.32;2.13;;;20.70;65.60;;;;;;6235251;22;20015;-90
2022/05/13 15:57:13;;;;;;;4.05;2.20;;;20.80;64.90;;;;;;6257183;22;20007;-90
2022/05/13 15:59:39;;;;;;;4.50;2.53;;;20.70;64.90;;;;;;6254440;22;20057;-90
2022/05/13 16:02:25;;;;;;;6.63;2.92;;;20.70;65.00;;;;;;6227267;22;20050;-94
2022/05/13 16:05:00;;;;;;;6.22;2.22;;;20.70;65.20;;;;;;6251902;22;20433;-92
2022/05/13 16:07:30;;;;;;;5.28;2.38;;;20.70;65.00;;;;;;6203886;22;20062;-95
2022/05/13 16:09:58;;;;;;;6.65;2.30;;;20.70;65.10;;;;;;6230002;22;20094;-93
2022/05/13 16:12:32;;;;;;;5.13;2.20;;;20.70;65.10;;;;;;6231095;22;20155;-94
2022/05/13 16:15:05;;;;;;;3.97;1.98;;;20.70;65.20;;;;;;6270526;22;20083;-94
2022/05/13 16:17:36;;;;;;;5.25;2.30;;;20.80;65.20;;;;;;6248276;22;20010;-93
2022/05/13 16:20:42;;;;;;;7.88;2.45;;;20.70;65.20;;;;;;6278229;22;19996;-94
2022/05/13 16:23:31;;;;;;;6.40;2.10;;;20.70;65.30;;;;;;6302516;22;20062;-92
2022/05/13 16:26:06;;;;;;;5.78;2.15;;;20.70;65.40;;;;;;6269947;22;20008;-94
2022/05/13 16:28:32;;;;;;;5.18;2.58;;;20.60;65.40;;;;;;6253304;22;19995;-93
2022/05/13 16:31:08;;;;;;;6.57;2.20;;;20.70;65.40;;;;;;6251883;22;20015;-92
2022/05/13 16:33:46;;;;;;;;;;;;;;;;;;;;;
2022/05/13 16:36:13;;;;;;;4.80;2.20;;;20.60;65.30;;;;;;6277998;22;20079;-92
2022/05/13 16:38:44;;;;;;;4.72;2.00;;;20.70;65.50;;;;;;6251172;22;20378;-94
2022/05/13 16:41:20;;;;;;;;;;;;;;;;;;;;;
2022/05/13 16:43:54;;;;;;;4.05;2.28;;;20.70;65.60;;;;;;6278387;22;20071;-91
2022/05/13 16:46:30;;;;;;;5.72;2.03;;;20.60;65.60;;;;;;6202427;22;20090;-93
2022/05/13 16:48:56;;;;;;;3.00;1.80;;;20.60;65.70;;;;;;6251477;22;20000;-94
2022/05/13 16:51:52;;;;;;;6.80;2.05;;;20.60;65.80;;;;;;6251079;22;20015;-93
2022/05/13 16:54:25;;;;;;;3.88;1.80;;;20.60;65.80;;;;;;6229730;22;20053;-94
2022/05/13 16:57:04;;;;;;;;;;;;;;;;;;;;;
2022/05/13 16:59:42;;;;;;;;;;;;;;;;;;;;;
2022/05/13 17:02:17;;;;;;;6.85;2.25;;;20.60;65.80;;;;;;6277248;22;20091;-95
2022/05/13 17:05:26;;;;;;;4.88;2.35;;;20.60;65.70;;;;;;6225197;22;20003;-93
2022/05/13 17:07:56;;;;;;;6.43;1.98;;;20.60;65.70;;;;;;6228135;22;20054;-93
2022/05/13 17:16:35;;;;;;;4.75;1.50;;;20.50;65.80;;;;;;6277810;22;20436;-94
2022/05/13 17:19:15;;;;;;;6.90;2.35;;;20.50;65.80;;;;;;6226618;22;20473;-93
2022/05/13 17:21:46;;;;;;;4.13;2.10;;;20.50;65.70;;;;;;6252242;22;20016;-93
2022/05/13 17:24:18;;;;;;;;;;;20.50;66.50;;;;;;6253032;22;20238;-92
2022/05/13 17:27:05;;;;;;;4.63;1.88;;;20.50;65.90;;;;;;6252662;22;19980;-94
2022/05/13 17:29:46;;;;;;;3.08;1.73;;;20.40;66.00;;;;;;6253811;22;20004;-94
2022/05/13 17:32:43;;;;;;;7.60;2.50;;;20.40;66.10;;;;;;6211997;22;20066;-94
2022/05/13 17:35:34;;;;;;;;;;;;;;;;;;;;;
2022/05/13 17:38:28;;;;;;;4.40;2.08;;;20.30;66.10;;;;;;6285680;22;20030;-93
2022/05/13 17:41:01;;;;;;;4.95;2.13;;;20.20;66.20;;;;;;6285920;22;20008;-92
2022/05/13 17:43:56;;;;;;;5.32;2.35;;;20.20;66.40;;;;;;6261494;22;20003;-91
2022/05/13 17:46:58;;;;;;;;;;;;;;;;;;;;;
2022/05/13 17:49:42;;;;;;;6.18;2.47;;;20.20;66.90;;;;;;6288468;22;20035;-93
2022/05/13 17:52:18;;;;;;;4.50;2.00;;;20.10;67.00;;;;;;6235370;22;20008;-93
2022/05/13 17:55:04;;;;;;;6.78;2.53;;;20.00;67.30;;;;;;6236256;22;20000;-96
2022/05/13 17:57:35;;;;;;;5.82;2.65;;;20.00;67.50;;;;;;6236761;22;20433;-93
2022/05/13 18:00:12;;;;;;;4.30;1.92;;;19.90;67.80;;;;;;6235785;22;20079;-95
2022/05/13 18:03:29;;;;;;;4.75;2.30;;;19.90;67.90;;;;;;6258480;22;20007;-92
2022/05/13 18:09:05;;;;;;;4.85;1.90;;;19.70;68.10;;;;;;6271275;22;20337;-94
2022/05/13 18:12:07;;;;;;;6.43;2.30;;;19.70;68.20;;;;;;6259541;22;20000;-93
2022/05/13 18:14:37;;;;;;;5.38;2.05;;;19.60;68.60;;;;;;6250414;22;20014;-93
2022/05/13 18:17:12;;;;;;;4.22;1.90;;;19.60;68.80;;;;;;6279310;22;20016;-92
2022/05/13 18:20:05;;;;;;;;;;;;;;;;;;;;;
2022/05/13 18:22:34;;;;;;;6.13;2.50;;;19.40;69.20;;;;;;6299530;22;20022;-94
2022/05/13 18:25:05;;;;;;;8.15;2.17;;;19.40;69.60;;;;;;6270458;22;20010;-94
2022/05/13 18:27:34;;;;;;;5.32;2.17;;;19.30;69.80;;;;;;6237885;22;20066;-94
2022/05/13 18:30:03;;;;;;;7.70;2.53;;;19.20;69.80;;;;;;6262365;22;19995;-93
2022/05/13 18:32:32;;;;;;;6.65;2.35;;;19.10;70.00;;;;;;6262491;22;20468;-93
2022/05/13 18:35:02;;;;;;;6.97;2.20;;;19.00;70.20;;;;;;6261993;22;20060;-94
2022/05/13 18:37:36;;;;;;;9.13;3.20;;;19.00;70.30;;;;;;6259763;22;19996;-95
2022/05/13 18:46:14;;;;;;;6.38;2.28;;;18.80;71.00;;;;;;6287342;22;20042;-94
2022/05/13 18:48:47;;;;;;;6.20;2.30;;;18.70;71.10;;;;;;6237542;22;20077;-93
2022/05/13 18:51:25;;;;;;;5.72;2.10;;;18.70;71.60;;;;;;6258936;22;20107;-93
2022/05/13 18:53:56;;;;;;;5.82;1.98;;;18.60;71.60;;;;;;6232871;22;20231;-94
2022/05/13 18:56:38;;;;;;;4.93;1.95;;;18.50;71.80;;;;;;6259395;22;20003;-92
2022/05/13 18:59:14;;;;;;;5.40;2.10;;;18.50;71.90;;;;;;6286541;22;20377;-94
2022/05/13 19:01:43;;;;;;;6.25;2.30;;;18.40;72.00;;;;;;6258608;22;20081;-93
2022/05/13 19:04:27;;;;;;;7.22;2.40;;;18.40;72.20;;;;;;6259045;22;20007;-92
2022/05/13 19:06:57;;;;;;;7.78;2.47;;;18.30;72.20;;;;;;6259038;22;20004;-93
2022/05/13 19:09:30;;;;;;;7.40;2.42;;;18.30;72.40;;;;;;6233674;22;20004;-92
2022/05/13 19:12:11;;;;;;;5.30;2.22;;;18.20;72.50;;;;;;6260209;22;20057;-95
2022/05/13 19:15:01;;;;;;;7.10;2.50;;;18.10;72.60;;;;;;6237341;22;20018;-94
2022/05/13 19:17:49;;;;;;;5.88;2.28;;;18.00;72.80;;;;;;6258542;22;20004;-91
2022/05/13 19:20:19;;;;;;;4.97;1.65;;;18.00;73.10;;;;;;6229079;23;20012;-94
2022/05/13 19:22:55;;;;;;;;;;;;;;;;;;;;;
2022/05/13 19:25:26;;;;;;;5.63;2.08;;;17.90;73.20;;;;;;6257111;23;20082;-95
2022/05/13 19:31:08;;;;;;;7.95;1.85;;;17.80;73.20;;;;;;6238884;23;20004;-94
2022/05/13 19:33:53;;;;;;;7.18;2.30;;;17.80;73.30;;;;;;6255433;23;20043;-92
2022/05/13 19:36:22;;;;;;;4.20;1.70;;;17.70;73.20;;;;;;6226462;23;20303;-92
2022/05/13 19:38:48;;;;;;;6.40;1.98;;;17.60;73.20;;;;;;6227597;23;20004;-93
2022/05/13 19:41:22;;;;;;;6.97;2.33;;;17.60;73.30;;;;;;6201853;23;20008;-93
2022/05/13 19:43:48;;;;;;;3.63;1.80;;;17.60;73.40;;;;;;6227217;23;20040;-93
2022/05/13 19:46:24;;;;;;;3.38;2.13;;;17.50;73.50;;;;;;6229171;23;20003;-92
2022/05/13 19:49:03;;;;;;;;;;;;;;;;;;;;;
2022/05/13 19:51:30;;;;;;;6.80;1.80;;;17.40;73.80;;;;;;6231700;23;20039;-93
2022/05/13 19:54:04;;;;;;;5.25;2.10;;;17.40;73.90;;;;;;6251944;23;20004;-92
2022/05/13 19:59:28;;;;;;;6.55;2.97;;;17.30;74.70;;;;;;6249047;23;20452;-92
2022/05/13 20:01:57;;;;;;;6.68;2.63;;;17.20;74.20;;;;;;6227740;23;20012;-92
2022/05/13 20:04:23;;;;;;;9.52;2.72;;;17.10;74.40;;;;;;6228388;23;20011;-94